Time;durP1;ratioP1;P1;durP2;ratioP2;P2;SDS_P1;SDS_P2;PMS_P1;PMS_P2;Temp;Humidity;BMP_temperature;BMP_pressure;BME280_temperature;BME280_humidity;BME280_pressure;Samples;Min_cycle;Max_cycle;Signal;HPM_P1;HPM_P2
2022/02/12 00:00:28;;;;;;;;;;;;;;;-1.25;100.00;100508.53;4936745;29;20364;-72
2022/02/12 00:02:53;;;;;;;;;;;;;;;-1.43;100.00;100506.69;4931780;29;19915;-74
2022/02/12 00:05:20;;;;;;;;;;;;;;;-1.53;100.00;100501.88;4928693;29;19910;-74
2022/02/12 00:07:45;;;;;;;;;;;;;;;-1.68;100.00;100500.97;4936748;29;19994;-74
2022/02/12 00:10:11;;;;;;;;;;;;;;;-1.58;100.00;100491.44;4935480;29;19957;-75
2022/02/12 00:12:36;;;;;;;;;;;;;;;-1.52;100.00;100490.91;4936756;29;19911;-74
2022/02/12 00:15:02;;;;;;;;;;;;;;;-1.43;100.00;100482.94;4935460;29;20360;-74
2022/02/12 00:17:27;;;;;;;;;;;;;;;-1.43;100.00;100483.81;4936877;29;19926;-74
2022/02/12 00:19:53;;;;;;;;;;;;;;;-1.36;100.00;100472.31;4931731;29;20368;-75
2022/02/12 00:22:18;;;;;;;;;;;;;;;-1.41;100.00;100477.13;4928486;29;19919;-75
2022/02/12 00:24:44;;;;;;;;;;;;;;;-1.50;100.00;100490.97;4936263;29;19918;-75
2022/02/12 00:27:09;;;;;;;;;;;;;;;-1.58;100.00;100488.03;4936585;29;19911;-75
2022/02/12 00:29:34;;;;;;;;;;;;;;;-1.54;100.00;100486.53;4936214;29;19919;-75
2022/02/12 00:31:59;;;;;;;;;;;;;;;-1.50;100.00;100479.16;4933180;29;20369;-75
2022/02/12 00:34:26;;;;;;;;;;;;;;;-1.44;100.00;100476.09;4926784;29;20017;-75
2022/02/12 00:36:51;;;;;;;;;;;;;;;-1.50;100.00;100481.69;4936093;29;20001;-75
2022/02/12 00:39:16;;;;;;;;;;;;;;;-1.62;100.00;100481.00;4936268;29;19965;-75
2022/02/12 00:41:41;;;;;;;;;;;;;;;-1.63;100.00;100469.09;4936002;29;19915;-75
2022/02/12 00:44:07;;;;;;;;;;;;;;;-1.66;100.00;100464.69;4936125;29;19918;-75
2022/02/12 00:46:32;;;;;;;;;;;;;;;-1.72;100.00;100473.63;4935931;29;20006;-75
2022/02/12 00:48:58;;;;;;;;;;;;;;;-1.78;100.00;100463.13;4933492;29;20384;-75
2022/02/12 00:51:23;;;;;;;;;;;;;;;-1.73;100.00;100466.81;4925929;29;20416;-75
2022/02/12 00:53:48;;;;;;;;;;;;;;;-1.76;100.00;100466.63;4935926;29;20439;-75
2022/02/12 00:56:13;;;;;;;;;;;;;;;-1.56;100.00;100463.56;4935829;29;20379;-75
2022/02/12 00:58:39;;;;;;;;;;;;;;;-1.79;100.00;100458.81;4935626;29;20374;-75
2022/02/12 08:01:16;;;;;;;;;;;;;;;-2.41;99.23;100249.63;5541537;23;20010;-67
2022/02/12 08:03:41;;;;;;;;;;;;;;;-2.29;98.98;100249.44;4925677;29;19958;-67
2022/02/12 08:07:27;;;;;;;;;;;;;;;-2.05;98.88;100242.34;4932431;29;20387;-67
2022/02/12 08:08:52;;;;;;;;;;;;;;;-1.93;98.82;100245.56;4936901;29;19914;-67
2022/02/12 08:11:23;;;;;;;;;;;;;;;-1.91;98.85;100249.06;4936733;29;20005;-67
2022/02/12 08:13:50;;;;;;;;;;;;;;;-1.73;98.27;100240.69;4936933;29;19915;-67
2022/02/12 08:16:15;;;;;;;;;;;;;;;-0.97;96.14;100242.19;4937125;29;19982;-69
2022/02/12 08:18:40;;;;;;;;;;;;;;;0.83;87.76;100226.19;4936800;29;19911;-69
2022/02/12 08:21:05;;;;;;;;;;;;;;;3.02;77.37;100208.50;4936571;29;19966;-69
2022/02/12 08:23:30;;;;;;;;;;;;;;;3.13;71.62;100211.41;4936741;29;20296;-69
2022/02/12 08:25:56;;;;;;;;;;;;;;;5.17;63.99;100203.16;4936283;29;20364;-69
2022/02/12 08:28:21;;;;;;;;;;;;;;;6.68;61.50;100191.34;4926850;29;20179;-69
2022/02/12 08:30:46;;;;;;;;;;;;;;;7.53;56.25;100198.94;4936404;29;19949;-69
2022/02/12 08:33:11;;;;;;;;;;;;;;;7.40;55.22;100197.88;4931329;29;19918;-69
2022/02/12 08:35:36;;;;;;;;;;;;;;;9.74;50.07;100198.34;4928384;29;20295;-69
2022/02/12 08:38:02;;;;;;;;;;;;;;;7.79;53.74;100201.13;4936296;29;20376;-70
2022/02/12 08:40:27;;;;;;;;;;;;;;;7.01;56.51;100197.13;4936205;29;19959;-70
2022/02/12 08:42:54;;;;;;;;;;;;;;;7.38;55.54;100194.38;4936392;29;19922;-69
2022/02/12 08:45:20;;;;;;;;;;;;;;;7.63;54.68;100195.66;4936320;29;19998;-70
2022/02/12 08:47:45;;;;;;;;;;;;;;;8.22;52.86;100182.84;4936009;29;20360;-70
2022/02/12 08:50:11;;;;;;;;;;;;;;;10.55;47.87;100175.59;4936096;29;20028;-70
2022/02/12 08:52:36;;;;;;;;;;;;;;;10.27;47.13;100173.72;4936052;29;19911;-70
2022/02/12 08:55:02;;;;;;;;;;;;;;;11.26;44.41;100166.28;4936034;29;19997;-70
2022/02/12 08:57:27;;;;;;;;;;;;;;;10.71;45.20;100175.66;4932418;29;19958;-70
2022/02/12 08:59:52;;;;;;;;;;;;;;;10.30;46.45;100184.13;4929728;29;19958;-70
2022/02/12 09:02:18;;;;;;;;;;;;;;;11.24;44.39;100177.56;4930506;29;19919;-70
2022/02/12 09:04:43;;;;;;;;;;;;;;;11.36;44.78;100180.16;4927982;29;20382;-70
2022/02/12 09:07:08;;;;;;;;;;;;;;;12.33;42.17;100170.63;4934433;29;19911;-70
2022/02/12 09:09:34;;;;;;;;;;;;;;;13.88;39.80;100171.47;4935765;29;19965;-70
2022/02/12 09:11:59;;;;;;;;;;;;;;;13.28;39.54;100165.00;4935914;29;19970;-70
2022/02/12 09:14:25;;;;;;;;;;;;;;;13.68;38.96;100159.50;4935793;29;19950;-70
2022/02/12 09:16:50;;;;;;;;;;;;;;;15.54;36.51;100146.81;4935739;29;19997;-70
2022/02/12 09:19:15;;;;;;;;;;;;;;;14.86;36.85;100140.88;4935592;29;19914;-70
2022/02/12 09:21:40;;;;;;;;;;;;;;;15.34;36.35;100149.72;4935599;29;19973;-70
2022/02/12 09:24:06;;;;;;;;;;;;;;;15.59;36.42;100139.75;4935549;29;19923;-70
2022/02/12 09:26:32;;;;;;;;;;;;;;;14.39;38.14;100145.75;4933806;29;19911;-70
2022/02/12 09:28:58;;;;;;;;;;;;;;;15.00;37.96;100149.38;4942164;28;20390;-70
2022/02/12 09:31:24;;;;;;;;;;;;;;;14.58;37.42;100146.44;4935496;29;19910;-70
2022/02/12 09:33:50;;;;;;;;;;;;;;;16.66;34.86;100135.16;4925746;29;19911;-70
2022/02/12 09:36:15;;;;;;;;;;;;;;;16.15;35.71;100140.56;4931898;29;19939;-70
2022/02/12 09:38:40;;;;;;;;;;;;;;;17.99;32.75;100133.84;4935498;29;19910;-70
2022/02/12 09:41:06;;;;;;;;;;;;;;;16.10;34.36;100134.53;4935184;29;19950;-70
2022/02/12 09:43:31;;;;;;;;;;;;;;;16.90;35.02;100131.19;4935054;29;19914;-70
2022/02/12 09:46:15;;;;;;;;;;;;;;;16.99;34.08;100129.25;4935071;29;19997;-70
2022/02/12 09:48:42;;;;;;;;;;;;;;;16.87;33.80;100130.38;4935111;29;19911;-70
2022/02/12 09:51:09;;;;;;;;;;;;;;;18.37;32.47;100121.41;4935077;29;19941;-72
2022/02/12 09:53:34;;;;;;;;;;;;;;;17.41;33.42;100127.41;4935042;29;20001;-70
2022/02/12 09:56:01;;;;;;;;;;;;;;;18.20;33.18;100109.63;4934938;29;20009;-70
2022/02/12 09:58:26;;;;;;;;;;;;;;;14.38;38.25;100125.78;4925085;29;19918;-70
2022/02/12 10:00:52;;;;;;;;;;;;;;;15.01;37.21;100122.38;4934837;29;19918;-70
2022/02/12 10:03:17;;;;;;;;;;;;;;;15.04;37.83;100122.34;4929486;29;20017;-70
2022/02/12 10:05:53;;;;;;;;;;;;;;;14.89;38.84;100114.69;4927104;29;20009;-70
2022/02/12 10:08:19;;;;;;;;;;;;;;;14.44;39.97;100101.34;4935171;29;19918;-70
2022/02/12 10:10:45;;;;;;;;;;;;;;;16.41;37.06;100099.94;4935030;29;20296;-70
2022/02/12 10:13:28;;;;;;;;;;;;;;;17.66;33.94;100096.22;4935064;29;20336;-70
2022/02/12 10:15:55;;;;;;;;;;;;;;;17.01;34.63;100094.28;4934718;29;19911;-70
2022/02/12 10:18:21;;;;;;;;;;;;;;;17.71;33.50;100089.09;4934912;29;19911;-70
2022/02/12 10:20:47;;;;;;;;;;;;;;;14.95;37.03;100101.59;4934980;29;19965;-70
2022/02/12 10:23:12;;;;;;;;;;;;;;;15.43;36.43;100086.06;4934804;29;20299;-70
2022/02/12 10:25:38;;;;;;;;;;;;;;;15.03;37.03;100091.88;4934829;29;20344;-70
2022/02/12 10:28:05;;;;;;;;;;;;;;;15.60;35.65;100078.78;4926272;29;19993;-69
2022/02/12 10:30:30;;;;;;;;;;;;;;;15.93;34.14;100077.31;4933211;29;19918;-69
2022/02/12 10:32:59;;;;;;;;;;;;;;;18.19;31.38;100065.09;4929623;29;19915;-70
2022/02/12 10:35:25;;;;;;;;;;;;;;;15.51;35.85;100078.91;4926639;29;20376;-70
2022/02/12 10:37:51;;;;;;;;;;;;;;;15.32;35.77;100075.75;4934606;29;19981;-70
2022/02/12 10:40:16;;;;;;;;;;;;;;;12.79;36.41;100082.00;4934828;29;20005;-70
2022/02/12 10:42:44;;;;;;;;;;;;;;;13.43;38.79;100071.16;4934833;29;20297;-69
2022/02/12 10:45:16;;;;;;;;;;;;;;;12.22;40.84;100068.44;4818879;28;20013;-69
2022/02/12 10:47:44;;;;;;;;;;;;;;;12.53;39.96;100059.63;4941192;29;19918;-70
2022/02/12 10:50:10;;;;;;;;;;;;;;;12.15;41.56;100045.94;4934942;29;19911;-70
2022/02/12 10:52:56;;;;;;;;;;;;;;;12.15;41.23;100056.34;4934824;29;20432;-69
2022/02/12 10:55:35;;;;;;;;;;;;;;;11.63;41.09;100046.06;4934608;29;20383;-69
2022/02/12 10:58:00;;;;;;;;;;;;;;;12.63;39.70;100036.19;4926726;29;19974;-69
2022/02/12 11:00:26;;;;;;;;;;;;;;;12.26;39.13;100023.38;4932628;29;20364;-69
2022/02/12 11:02:52;;;;;;;;;;;;;;;12.16;39.77;100024.28;4929519;29;19938;-69
2022/02/12 11:05:19;;;;;;;;;;;;;;;12.71;39.24;100023.97;4926509;29;20372;-69
2022/02/12 11:07:44;;;;;;;;;;;;;;;13.15;37.68;100012.38;4934391;29;19917;-69
2022/02/12 11:10:09;;;;;;;;;;;;;;;14.14;36.72;100009.63;4936979;29;20008;-69
2022/02/12 11:12:36;;;;;;;;;;;;;;;11.83;38.88;100018.34;4937730;29;19910;-69
2022/02/12 11:15:02;;;;;;;;;;;;;;;11.73;39.36;100011.41;4937923;29;19910;-69
2022/02/12 11:17:29;;;;;;;;;;;;;;;13.38;36.71;100000.03;4937797;29;19975;-69
2022/02/12 11:19:54;;;;;;;;;;;;;;;13.19;35.74;100001.91;4937737;29;19918;-69
2022/02/12 11:22:20;;;;;;;;;;;;;;;13.52;35.73;99992.97;4937666;29;19914;-69
2022/02/12 11:24:46;;;;;;;;;;;;;;;14.02;35.24;99983.72;4937705;29;20038;-69
2022/02/12 11:27:17;;;;;;;;;;;;;;;13.00;36.03;99984.75;4935606;29;19966;-69
2022/02/12 11:29:44;;;;;;;;;;;;;;;13.27;35.63;99974.13;4922350;29;19914;-69
2022/02/12 11:32:12;;;;;;;;;;;;;;;13.43;34.85;99968.75;4933350;29;20265;-69
2022/02/12 11:34:55;;;;;;;;;;;;;;;14.86;32.80;99956.44;4928882;29;19957;-70
2022/02/12 11:37:21;;;;;;;;;;;;;;;13.54;34.78;99954.75;4937264;29;19965;-69
2022/02/12 11:40:17;;;;;;;;;;;;;;;10.58;39.31;99957.03;4937312;29;19946;-69
2022/02/12 11:42:56;;;;;;;;;;;;;;;11.86;36.92;99940.44;4933059;29;20344;-69
2022/02/12 11:45:26;;;;;;;;;;;;;;;11.33;37.33;99939.72;4937360;29;19915;-69
2022/02/12 11:48:13;;;;;;;;;;;;;;;13.31;35.58;99920.31;4937192;29;19911;-69
2022/02/12 11:50:41;;;;;;;;;;;;;;;13.03;35.32;99925.75;4937113;29;19917;-69
2022/02/12 11:53:26;;;;;;;;;;;;;;;12.75;34.11;99921.66;4937303;29;20360;-69
2022/02/12 11:55:51;;;;;;;;;;;;;;;12.79;34.96;99912.97;4936970;29;19960;-69
2022/02/12 11:58:42;;;;;;;;;;;;;;;11.95;34.63;99924.81;4927371;29;19950;-69
2022/02/12 12:01:27;;;;;;;;;;;;;;;11.46;35.08;99909.41;4936965;29;20303;-69
2022/02/12 12:04:22;;;;;;;;;;;;;;;11.14;36.64;99911.22;4926839;29;19958;-69
2022/02/12 12:07:01;;;;;;;;;;;;;;;11.54;35.28;99894.66;4917866;29;19911;-69
2022/02/12 12:09:29;;;;;;;;;;;;;;;11.84;36.79;99892.81;4918078;29;19911;-69
2022/02/12 12:12:13;;;;;;;;;;;;;;;12.64;33.52;99881.88;4918003;29;19915;-69
2022/02/12 12:14:38;;;;;;;;;;;;;;;12.07;34.23;99883.16;4917840;29;19917;-69
2022/02/12 12:17:04;;;;;;;;;;;;;;;13.71;32.40;99867.75;4917604;29;19911;-69
2022/02/12 12:19:30;;;;;;;;;;;;;;;12.55;33.04;99864.63;4917355;29;19911;-69
2022/02/12 12:21:56;;;;;;;;;;;;;;;12.86;34.04;99865.19;4917540;29;19915;-69
2022/02/12 12:24:21;;;;;;;;;;;;;;;12.99;32.76;99856.41;4917729;29;19934;-69
2022/02/12 12:26:48;;;;;;;;;;;;;;;12.08;33.14;99866.69;4921405;29;19965;-69
2022/02/12 12:32:01;;;;;;;;;;;;;;;12.00;33.51;99860.72;4933569;29;19984;-69
2022/02/12 12:34:27;;;;;;;;;;;;;;;9.82;35.17;99867.09;4926807;29;19993;-69
2022/02/12 12:36:56;;;;;;;;;;;;;;;9.90;36.85;99857.59;4936204;29;19965;-69
2022/02/12 12:39:29;;;;;;;;;;;;;;;8.60;38.29;99858.72;4936368;29;20368;-69
2022/02/12 12:41:55;;;;;;;;;;;;;;;8.27;39.52;99856.69;4936158;29;20365;-69
2022/02/12 12:44:23;;;;;;;;;;;;;;;8.06;39.60;99859.94;4936207;29;19918;-69
2022/02/12 12:46:49;;;;;;;;;;;;;;;8.27;39.93;99860.16;4936244;29;19914;-69
2022/02/12 12:49:34;;;;;;;;;;;;;;;8.37;40.62;99858.56;4936171;29;19911;-69
2022/02/12 12:52:00;;;;;;;;;;;;;;;8.22;40.05;99848.94;4936064;29;19910;-69
2022/02/12 12:54:32;;;;;;;;;;;;;;;8.27;40.52;99844.66;4936057;29;19917;-69
2022/02/12 12:56:59;;;;;;;;;;;;;;;7.89;40.41;99852.91;4933950;29;19917;-69
2022/02/12 12:59:24;;;;;;;;;;;;;;;7.82;39.97;99853.69;4928028;29;19917;-69
2022/02/12 13:01:57;;;;;;;;;;;;;;;7.89;39.93;99842.59;4934053;29;19997;-69
2022/02/12 13:04:22;;;;;;;;;;;;;;;7.56;39.33;99843.09;4925584;29;19922;-69
2022/02/12 13:06:49;;;;;;;;;;;;;;;7.60;39.60;99847.44;4935620;29;19915;-69
2022/02/12 13:09:14;;;;;;;;;;;;;;;7.78;39.33;99844.19;4935835;29;19911;-69
2022/02/12 13:11:39;;;;;;;;;;;;;;;7.85;39.32;99845.13;4935703;29;19965;-69
2022/02/12 13:14:06;;;;;;;;;;;;;;;8.34;37.03;99830.09;4935705;29;19911;-69
2022/02/12 13:16:44;;;;;;;;;;;;;;;8.49;36.73;99833.66;4935571;29;19917;-69
2022/02/12 13:19:19;;;;;;;;;;;;;;;8.03;37.02;99834.13;4935661;29;19933;-69
2022/02/12 13:21:55;;;;;;;;;;;;;;;8.10;37.72;99830.75;4935495;29;19911;-69
2022/02/12 13:24:21;;;;;;;;;;;;;;;8.33;36.67;99826.63;4935835;29;20001;-69
2022/02/12 13:26:47;;;;;;;;;;;;;;;8.21;37.18;99829.09;4933718;29;20005;-69
2022/02/12 13:29:16;;;;;;;;;;;;;;;7.71;38.07;99832.09;4927501;29;20046;-69
2022/02/12 13:31:44;;;;;;;;;;;;;;;8.14;38.63;99822.19;4934042;29;19911;-69
2022/02/12 13:34:09;;;;;;;;;;;;;;;8.24;39.28;99809.34;4924200;29;19918;-69
2022/02/12 13:36:41;;;;;;;;;;;;;;;8.27;39.50;99808.53;4934490;29;19915;-69
2022/02/12 13:39:06;;;;;;;;;;;;;;;7.91;39.71;99815.09;4935386;29;19911;-69
2022/02/12 13:41:38;;;;;;;;;;;;;;;7.71;40.36;99816.59;4931613;29;19937;-69
2022/02/12 13:44:03;;;;;;;;;;;;;;;7.51;40.79;99808.66;4916260;29;19922;-69
2022/02/12 13:46:33;;;;;;;;;;;;;;;7.90;40.76;99803.03;4915980;29;19911;-69
2022/02/12 13:49:12;;;;;;;;;;;;;;;7.82;40.74;99791.78;4916262;29;19911;-69
2022/02/12 13:51:48;;;;;;;;;;;;;;;7.79;40.07;99793.47;4916215;29;19911;-69
2022/02/12 13:54:13;;;;;;;;;;;;;;;7.37;41.77;99800.78;4916397;29;19918;-69
2022/02/12 13:56:38;;;;;;;;;;;;;;;7.38;41.93;99801.63;4919007;29;20005;-69
2022/02/12 13:59:04;;;;;;;;;;;;;;;7.35;41.56;99802.47;4927169;29;19919;-69
2022/02/12 14:01:29;;;;;;;;;;;;;;;7.64;41.91;99799.31;4934938;29;19978;-69
2022/02/12 14:03:54;;;;;;;;;;;;;;;7.41;42.07;99804.25;4925031;29;20456;-69
2022/02/12 14:06:19;;;;;;;;;;;;;;;7.40;43.26;99805.97;4932246;29;19917;-69
2022/02/12 14:08:44;;;;;;;;;;;;;;;7.51;42.88;99802.66;4935259;29;19954;-69
2022/02/12 14:11:11;;;;;;;;;;;;;;;7.97;42.57;99789.31;4935012;29;19960;-69
2022/02/12 14:13:36;;;;;;;;;;;;;;;7.91;42.43;99793.56;4935157;29;19961;-69
2022/02/12 14:16:01;;;;;;;;;;;;;;;7.88;42.15;99796.13;4928499;23;19962;-69
2022/02/12 14:18:27;;;;;;;;;;;;;;;8.10;42.70;99789.44;4916223;29;20343;-69
2022/02/12 14:20:52;;;;;;;;;;;;;;;7.64;43.55;99796.75;4915939;29;19911;-69
2022/02/12 14:23:17;;;;;;;;;;;;;;;7.61;43.96;99791.56;4915906;29;20295;-69
2022/02/12 14:25:43;;;;;;;;;;;;;;;7.22;44.50;99792.88;4915716;29;20276;-69
2022/02/12 14:28:11;;;;;;;;;;;;;;;7.14;44.81;99792.75;4923653;29;19911;-69
2022/02/12 14:30:36;;;;;;;;;;;;;;;7.11;45.07;99799.59;4933988;29;19915;-69
2022/02/12 14:33:02;;;;;;;;;;;;;;;7.19;45.51;99790.25;4929700;29;20273;-69
2022/02/12 14:35:27;;;;;;;;;;;;;;;7.34;45.69;99795.56;4926873;29;20260;-69
2022/02/12 14:37:52;;;;;;;;;;;;;;;7.18;45.12;99788.50;4934762;29;20343;-69
2022/02/12 14:40:18;;;;;;;;;;;;;;;7.03;46.05;99786.63;4934844;29;19917;-69
2022/02/12 14:42:44;;;;;;;;;;;;;;;7.03;45.56;99780.59;4935100;29;19922;-69
2022/02/12 14:45:09;;;;;;;;;;;;;;;6.81;47.14;99776.88;4938315;29;19911;-69
2022/02/12 14:47:34;;;;;;;;;;;;;;;6.82;46.97;99769.19;4938167;29;20283;-69
2022/02/12 14:50:00;;;;;;;;;;;;;;;7.06;47.43;99767.75;4938419;29;19918;-69
2022/02/12 14:52:28;;;;;;;;;;;;;;;7.08;46.94;99755.75;4938299;29;19918;-69
2022/02/12 14:54:53;;;;;;;;;;;;;;;6.99;47.58;99758.22;4938313;29;19910;-69
2022/02/12 14:57:18;;;;;;;;;;;;;;;7.00;47.82;99754.78;4935709;29;19910;-69
2022/02/12 14:59:43;;;;;;;;;;;;;;;6.98;47.92;99748.75;4930469;29;19917;-78
2022/02/12 15:02:09;;;;;;;;;;;;;;;6.87;48.33;99741.78;4932830;29;19915;-80
2022/02/12 15:04:34;;;;;;;;;;;;;;;6.93;49.09;99741.84;4928264;29;19922;-76
2022/02/12 15:06:59;;;;;;;;;;;;;;;6.73;49.72;99738.16;4937920;29;19957;-77
2022/02/12 15:09:24;;;;;;;;;;;;;;;6.79;50.70;99738.22;4938061;29;20119;-77
2022/02/12 15:11:51;;;;;;;;;;;;;;;6.97;52.81;99727.28;4925588;29;20058;-78
2022/02/12 15:14:17;;;;;;;;;;;;;;;7.08;49.67;99729.97;4918487;29;20017;-71
2022/02/12 15:16:42;;;;;;;;;;;;;;;6.90;50.20;99721.19;4918650;29;19989;-74
2022/02/12 15:19:07;;;;;;;;;;;;;;;6.87;50.17;99726.31;4918767;29;19915;-69
2022/02/12 15:21:33;;;;;;;;;;;;;;;6.85;50.32;99722.84;4918829;29;19954;-71
2022/02/12 15:23:58;;;;;;;;;;;;;;;6.77;50.55;99708.13;4918707;29;19938;-72
2022/02/12 15:26:24;;;;;;;;;;;;;;;6.71;50.94;99714.06;4919301;29;19950;-69
2022/02/12 15:28:49;;;;;;;;;;;;;;;6.58;50.83;99712.22;4929662;29;19917;-70
2022/02/12 15:31:15;;;;;;;;;;;;;;;6.57;51.37;99710.47;4937798;29;19910;-72
2022/02/12 15:33:44;;;;;;;;;;;;;;;6.54;52.52;99700.13;4921216;29;19911;-73
2022/02/12 15:36:10;;;;;;;;;;;;;;;6.60;52.71;99695.91;4925984;29;20365;-80
2022/02/12 15:38:36;;;;;;;;;;;;;;;6.48;52.12;99689.75;4918496;29;19943;-71
2022/02/12 15:41:01;;;;;;;;;;;;;;;6.50;52.64;99682.91;4918385;29;19911;-71
2022/02/12 15:43:28;;;;;;;;;;;;;;;6.33;52.91;99678.38;4918278;29;20558;-70
2022/02/12 15:45:53;;;;;;;;;;;;;;;6.32;54.12;99676.66;4918042;29;20377;-74
2022/02/12 15:48:19;;;;;;;;;;;;;;;6.33;52.91;99670.66;4918039;29;19918;-70
2022/02/12 15:50:45;;;;;;;;;;;;;;;6.22;53.10;99672.25;4918165;29;19911;-70
2022/02/12 15:53:11;;;;;;;;;;;;;;;6.05;53.45;99663.44;4918196;29;19917;-70
2022/02/12 15:55:36;;;;;;;;;;;;;;;6.12;53.67;99655.81;4917392;29;19911;-70
2022/02/12 15:58:02;;;;;;;;;;;;;;;6.04;53.30;99656.53;4925620;29;20402;-70
2022/02/12 16:00:27;;;;;;;;;;;;;;;5.90;53.86;99654.63;4935184;29;19911;-70
2022/02/12 16:02:52;;;;;;;;;;;;;;;5.87;53.89;99644.28;4931538;29;19921;-73
2022/02/12 16:05:17;;;;;;;;;;;;;;;5.86;53.67;99657.97;4943713;29;20276;-71
2022/02/12 16:07:43;;;;;;;;;;;;;;;5.78;54.47;99653.56;4936781;29;20351;-71
2022/02/12 16:10:09;;;;;;;;;;;;;;;5.71;54.31;99647.47;4937075;29;20001;-71
2022/02/12 16:12:34;;;;;;;;;;;;;;;5.66;54.46;99651.69;4936972;29;20006;-71
2022/02/12 16:14:59;;;;;;;;;;;;;;;5.54;55.26;99643.75;4936598;29;20334;-71
2022/02/12 16:17:25;;;;;;;;;;;;;;;5.50;55.33;99644.53;4936748;29;19915;-71
2022/02/12 16:19:52;;;;;;;;;;;;;;;5.34;55.94;99644.28;4936738;29;19918;-71
2022/02/12 16:22:17;;;;;;;;;;;;;;;5.24;56.39;99650.13;4936667;29;19915;-71
2022/02/12 16:24:42;;;;;;;;;;;;;;;5.17;56.62;99643.13;4936632;29;19911;-71
2022/02/12 16:27:07;;;;;;;;;;;;;;;5.04;56.96;99651.47;4934479;29;19919;-71
2022/02/12 16:29:33;;;;;;;;;;;;;;;4.99;57.39;99647.97;4928708;29;19918;-71
2022/02/12 16:32:00;;;;;;;;;;;;;;;4.92;57.72;99651.22;4933845;29;20284;-71
2022/02/12 16:34:25;;;;;;;;;;;;;;;4.78;58.05;99649.25;4926365;29;19915;-71
2022/02/12 16:36:51;;;;;;;;;;;;;;;4.74;58.54;99652.63;4936312;29;19911;-71
2022/02/12 16:39:17;;;;;;;;;;;;;;;4.58;59.29;99656.56;4936432;29;19911;-71
2022/02/12 16:41:44;;;;;;;;;;;;;;;4.45;59.74;99653.72;4936364;29;19919;-71
2022/02/12 16:44:09;;;;;;;;;;;;;;;4.36;60.26;99650.16;4936522;29;19918;-71
2022/02/12 16:46:34;;;;;;;;;;;;;;;4.29;61.04;99658.53;4936070;29;19911;-71
2022/02/12 16:48:59;;;;;;;;;;;;;;;4.21;61.07;99660.09;4936248;29;19964;-71
2022/02/12 16:51:25;;;;;;;;;;;;;;;4.14;62.27;99655.66;4936275;29;19958;-71
2022/02/12 16:53:51;;;;;;;;;;;;;;;4.06;63.38;99675.13;4936265;29;19978;-71
2022/02/12 16:56:16;;;;;;;;;;;;;;;3.98;63.33;99674.97;4933945;29;20386;-71
2022/02/12 16:58:41;;;;;;;;;;;;;;;4.16;63.31;99677.09;4928060;29;20001;-71
2022/02/12 17:01:06;;;;;;;;;;;;;;;3.89;63.21;99676.44;4936031;29;19914;-71
2022/02/12 17:03:32;;;;;;;;;;;;;;;3.72;64.03;99676.91;4928620;29;19915;-71
2022/02/12 17:05:57;;;;;;;;;;;;;;;3.55;64.46;99686.75;4929759;29;19953;-71
2022/02/12 17:08:24;;;;;;;;;;;;;;;3.43;65.92;99681.31;4936038;29;20356;-71
2022/02/12 17:10:49;;;;;;;;;;;;;;;3.39;66.90;99678.66;4935782;29;19914;-71
2022/02/12 17:13:15;;;;;;;;;;;;;;;3.29;66.54;99673.31;4935856;29;19969;-71
2022/02/12 17:15:44;;;;;;;;;;;;;;;3.28;66.69;99671.53;4935532;29;19958;-71
2022/02/12 17:18:09;;;;;;;;;;;;;;;3.26;66.01;99675.78;4935891;29;19915;-71
2022/02/12 17:20:34;;;;;;;;;;;;;;;3.12;65.60;99676.25;4935779;29;19911;-71
2022/02/12 17:22:59;;;;;;;;;;;;;;;3.05;65.92;99670.13;4935580;29;20351;-71
2022/02/12 17:25:25;;;;;;;;;;;;;;;3.00;67.29;99682.78;4935454;29;19921;-71
2022/02/12 17:27:50;;;;;;;;;;;;;;;3.02;67.58;99678.56;4928990;29;20261;-71
2022/02/12 17:30:16;;;;;;;;;;;;;;;3.00;67.88;99684.47;4932187;29;19930;-71
2022/02/12 17:32:41;;;;;;;;;;;;;;;2.78;68.58;99676.19;4930223;29;19911;-71
2022/02/12 17:35:06;;;;;;;;;;;;;;;2.76;68.74;99675.31;4927505;29;20364;-71
2022/02/12 17:37:31;;;;;;;;;;;;;;;2.51;69.75;99673.72;4935292;29;19918;-71
2022/02/12 17:39:57;;;;;;;;;;;;;;;2.55;69.31;99674.69;4935453;29;20341;-70
2022/02/12 17:42:22;;;;;;;;;;;;;;;2.58;69.43;99682.47;4935292;29;19919;-70
2022/02/12 17:44:47;;;;;;;;;;;;;;;2.43;69.39;99675.22;4935362;29;19915;-70
2022/02/12 17:47:12;;;;;;;;;;;;;;;2.27;70.66;99684.16;4935159;29;19918;-70
2022/02/12 17:49:37;;;;;;;;;;;;;;;2.17;71.23;99682.09;4935381;29;19957;-70
2022/02/12 17:52:03;;;;;;;;;;;;;;;2.02;72.10;99681.66;4935216;29;19911;-70
2022/02/12 17:54:29;;;;;;;;;;;;;;;1.92;72.84;99680.50;4935293;29;19917;-70
2022/02/12 17:56:54;;;;;;;;;;;;;;;2.04;72.67;99680.88;4932966;29;20443;-70
2022/02/12 17:59:19;;;;;;;;;;;;;;;1.93;73.79;99681.34;4927305;29;19911;-71
2022/02/12 18:01:45;;;;;;;;;;;;;;;1.78;74.49;99682.59;4934181;29;19961;-70
2022/02/12 18:04:10;;;;;;;;;;;;;;;1.74;75.24;99673.16;4923816;29;19915;-70
2022/02/12 18:06:35;;;;;;;;;;;;;;;1.74;75.47;99680.81;4934032;29;19921;-70
2022/02/12 18:11:45;;;;;;;;;;;;;;;1.79;75.43;99674.16;4935134;29;19918;-70
2022/02/12 18:14:12;;;;;;;;;;;;;;;1.65;75.66;99667.75;4935255;29;19911;-70
2022/02/12 18:16:37;;;;;;;;;;;;;;;1.53;75.80;99669.88;4934830;29;20376;-70
2022/02/12 18:19:02;;;;;;;;;;;;;;;1.55;74.79;99665.72;4937599;29;19910;-70
2022/02/12 18:21:28;;;;;;;;;;;;;;;1.67;73.91;99660.97;4937864;29;19910;-70
2022/02/12 18:23:53;;;;;;;;;;;;;;;1.70;73.38;99666.19;4938724;29;19957;-70
2022/02/12 18:26:18;;;;;;;;;;;;;;;1.69;73.40;99659.34;4936516;29;20017;-70
2022/02/12 18:28:44;;;;;;;;;;;;;;;1.60;73.51;99659.06;4930824;29;20001;-70
2022/02/12 18:31:09;;;;;;;;;;;;;;;1.61;73.69;99663.34;4938817;29;19917;-69
2022/02/12 18:33:35;;;;;;;;;;;;;;;1.53;73.98;99663.09;4931035;29;19917;-69
2022/02/12 18:36:01;;;;;;;;;;;;;;;1.44;74.52;99659.38;4932793;29;19917;-69
2022/02/12 18:38:26;;;;;;;;;;;;;;;1.35;75.08;99661.63;4938597;29;20006;-69
2022/02/12 18:40:53;;;;;;;;;;;;;;;1.26;75.61;99655.41;4938473;29;19961;-70
2022/02/12 18:43:18;;;;;;;;;;;;;;;1.14;76.34;99649.88;4938653;29;19934;-70
2022/02/12 18:45:44;;;;;;;;;;;;;;;1.00;77.17;99651.97;4938243;29;19911;-70
2022/02/12 18:48:09;;;;;;;;;;;;;;;0.90;77.79;99649.06;4938475;29;19984;-70
2022/02/12 18:50:35;;;;;;;;;;;;;;;0.83;78.48;99647.13;4938320;29;19918;-70
2022/02/12 18:53:00;;;;;;;;;;;;;;;0.69;79.30;99644.09;4938365;29;19910;-70
2022/02/12 18:55:25;;;;;;;;;;;;;;;0.66;79.89;99639.72;4938255;29;20013;-70
2022/02/12 18:57:53;;;;;;;;;;;;;;;0.54;80.22;99624.00;4931638;29;19911;-70
2022/02/12 19:00:18;;;;;;;;;;;;;;;0.50;80.69;99629.81;4919183;29;20296;-69
2022/02/12 19:02:45;;;;;;;;;;;;;;;0.47;80.82;99622.91;4922432;29;19914;-70
2022/02/12 19:05:10;;;;;;;;;;;;;;;0.45;81.09;99621.13;4930178;28;19911;-70
2022/02/12 19:07:36;;;;;;;;;;;;;;;0.39;81.33;99626.03;4937813;29;20005;-70
2022/02/12 19:10:01;;;;;;;;;;;;;;;0.36;81.43;99625.91;4938235;29;19954;-70
2022/02/12 19:12:27;;;;;;;;;;;;;;;0.29;81.75;99621.38;4937957;29;20009;-70
2022/02/12 19:14:52;;;;;;;;;;;;;;;0.32;81.47;99616.41;4937961;29;19914;-70
2022/02/12 19:17:17;;;;;;;;;;;;;;;0.24;81.80;99618.66;4937776;29;19910;-70
2022/02/12 19:19:43;;;;;;;;;;;;;;;0.23;81.74;99617.78;4937872;29;19910;-70
2022/02/12 19:22:08;;;;;;;;;;;;;;;0.22;81.83;99605.88;4937684;29;19926;-70
2022/02/12 19:24:33;;;;;;;;;;;;;;;0.15;82.37;99603.94;4937848;29;20352;-70
2022/02/12 19:26:59;;;;;;;;;;;;;;;0.13;82.33;99605.53;4935606;29;19918;-70
2022/02/12 19:29:24;;;;;;;;;;;;;;;0.06;82.45;99607.81;4928583;29;19911;-70
2022/02/12 19:31:49;;;;;;;;;;;;;;;0.01;82.75;99610.19;4935988;29;19911;-70
2022/02/12 19:34:14;;;;;;;;;;;;;;;-0.06;83.00;99610.75;4926350;29;19915;-70
2022/02/12 19:36:40;;;;;;;;;;;;;;;-0.07;83.29;99603.94;4936992;29;19917;-70
2022/02/12 19:39:06;;;;;;;;;;;;;;;-0.02;83.17;99602.41;4937474;29;19974;-70
2022/02/12 19:41:31;;;;;;;;;;;;;;;-0.03;83.20;99603.25;4937807;28;19916;-70
2022/02/12 19:43:56;;;;;;;;;;;;;;;0.07;82.77;99595.13;4937437;29;19918;-70
2022/02/12 19:46:21;;;;;;;;;;;;;;;0.07;82.43;99594.25;4937140;29;20013;-70
2022/02/12 19:48:47;;;;;;;;;;;;;;;0.01;82.68;99592.34;4937370;29;20072;-70
2022/02/12 19:51:13;;;;;;;;;;;;;;;-0.05;83.11;99590.47;4937214;29;19910;-70